Pagrindinis puslapis
METAR-TAF:

METAR-TAF

Oro uostai :

Gaziantepas, Turkija

platuma: 37-05N, ilguma: 037-22E, Aukštis: 701 m

Dabartinis oras

Ataskaita buvo paskelbta 1 valandą ir 8 minutes, ne 22:20 UTC
Vėjas 6 kt iš Šiaurės Vakarų, svyruoja nuo Vakarų ir Šiaurės
Temperatūra 18°C
Drėgmė 42%
Slėgis 1017 hPa
Matomumas 10 km arba daugiau
nėra debesų žemiau 1500 m ir nėra kamuolinių lietaus debesų

METAR: LTAJ 242220Z 31006KT 280V350 CAVOK 18/05 Q1017 NOSIG RMK RWY10 31007KT SKC

Laikas: 02:28 (23:28 UTC)

Prognozė

Ataskaita buvo paskelbta 6 valandos ir 48 minutes, ne 16:40 UTC
Prognozė galioja nuo 24 metu 18 UTC su 25 metu 18 UTC
Vėjas 7 kt iš Šiaurės/Šiaurės Vakarų
Matomumas 10 km arba daugiau
nėra debesų žemiau 1500 m ir nėra kamuolinių lietaus debesų
Laikinai
nuo 25 metu 05 UTC su 25 metu 08 UTC
Vėjas 17 kt iš Šiaurės

TAF: LTAJ 241640Z 2418/2518 33007KT CAVOK TEMPO 2505/2508 35017KT

Orai ataskaitas ir orų prognozės (METAR, TAF).

turimą stotys yra geltonos ir raudonos taškus žemėlapyje.

Perkelti pele per norėdami pamatyti stoties vardą.

Tada spustelėkite, norėdami matyti oro stebėjimo ir prognozės.

Norėdami pakeisti žemėlapį: spustelėkite ant žalios mygtukų su juodo kryžiaus žemyn,; žalią mygtuką su brūkšneliu, jei norite nutolinti; arba žalių rodyklių gretimoms žemėlapius.


METAR-TAF: